Orenge 7 — JL6148 — position and weather

sailwx.info

Track history (hours):
 
Tides and Currents Weather Stations Pressure Air Temp Water Temp Dewpoint Dewpoint Depression Visibility Wind Speed Wind Dir Waves Ship Positions

Orenge 7

Last reported at 2016-Jun-25 14:33 UTC. Time now 2016-Jun-26 15:34 UTC.
Position N 34°37' E 134°56'.

Length 163 m; draft 4.9 m.

Type: Passenger vessel. MMSI: 431500186.

Date/timePositionNaut miles runAvg speedWind from/ knotsBaromVisibWave heightAir tempDewpointWater temp
2016-Jun-25 14:33N 34°37' E 134°56'1918.8
2016-Jun-25 13:33N 34°37' E 135°19'6 5.0
2016-Jun-25 12:26N 34°37' E 135°26'0 0.0
2016-Jun-25 11:26N 34°37' E 135°26'0 0.0
2016-Jun-25 10:32N 34°37' E 135°26'0 0.0
2016-Jun-25 09:32N 34°37' E 135°26'0 0.0
2016-Jun-25 08:32N 34°37' E 135°26'0 0.0
2016-Jun-25 07:32N 34°37' E 135°26'0 0.0
2016-Jun-25 06:32N 34°37' E 135°26'0 0.0
2016-Jun-25 04:32N 34°37' E 135°26'0 0.0
2016-Jun-25 03:26N 34°37' E 135°26'0 0.0
2016-Jun-25 02:32N 34°37' E 135°26'0 0.0
2016-Jun-25 01:26N 34°37' E 135°26'0 0.0
2016-Jun-25 00:32N 34°37' E 135°26'0 0.0
2016-Jun-24 23:32N 34°37' E 135°26'0 0.0
2016-Jun-24 22:32N 34°37' E 135°26'0 0.0
2016-Jun-24 21:32N 34°37' E 135°26'5 5.1
2016-Jun-24 20:33N 34°36' E 135°20'1818.0
2016-Jun-24 19:33N 34°37' E 134°58'2 0.1
2016-Jun-23 14:33N 34°37' E 134°56'1818.3
2016-Jun-23 13:33N 34°36' E 135°18'6 6.4
2016-Jun-23 12:33N 34°37' E 135°26'0 0.0
2016-Jun-23 11:33N 34°37' E 135°26'0 0.0
2016-Jun-23 10:33N 34°37' E 135°26'0 0.0
2016-Jun-23 09:33N 34°37' E 135°26'0 0.0
2016-Jun-23 08:33N 34°37' E 135°26'0 0.0
2016-Jun-23 07:33N 34°37' E 135°26'0 0.0
2016-Jun-23 05:33N 34°37' E 135°26'0 0.0
2016-Jun-23 04:27N 34°37' E 135°26'0 0.0
2016-Jun-23 03:33N 34°37' E 135°26'0 0.0
2016-Jun-23 02:33N 34°37' E 135°26'0 0.0
2016-Jun-23 01:33N 34°37' E 135°26'0 0.0
2016-Jun-23 00:33N 34°37' E 135°26'0 0.0
2016-Jun-22 23:33N 34°37' E 135°26'0 0.0
2016-Jun-22 22:27N 34°37' E 135°26'0 0.0
2016-Jun-22 21:33N 34°37' E 135°26'5 4.9
2016-Jun-22 20:33N 34°36' E 135°20'1717.1
2016-Jun-22 19:33N 34°37' E 134°59'3 0.1
2016-Jun-21 14:33N 34°37' E 134°56'1918.5
2016-Jun-21 13:33N 34°36' E 135°19'6 5.7
2016-Jun-21 12:29N 34°37' E 135°26'0 0.0
2016-Jun-21 11:23N 34°37' E 135°26'0 0.0
2016-Jun-21 10:29N 34°37' E 135°26'0 0.0
2016-Jun-21 09:05N 34°37' E 135°26'0 0.0
2016-Jun-21 08:29N 34°37' E 135°26'0 0.0
2016-Jun-21 07:29N 34°37' E 135°26'0 0.0
2016-Jun-21 04:23N 34°37' E 135°26'0 0.0
2016-Jun-21 03:23N 34°37' E 135°26'0 0.0
2016-Jun-21 02:17N 34°37' E 135°26'0 0.0
2016-Jun-21 01:29N 34°37' E 135°26'0 0.0
2016-Jun-21 00:23N 34°37' E 135°26'0 0.0
2016-Jun-20 23:29N 34°37' E 135°26'0 0.0
2016-Jun-20 22:29N 34°37' E 135°26'0 0.0
2016-Jun-20 21:29N 34°37' E 135°26'5 5.3
2016-Jun-20 20:33N 34°36' E 135°20'1717.2
2016-Jun-20 19:34N 34°37' E 134°59'3 0.1
2016-Jun-19 14:33N 34°37' E 134°56'1818.5
2016-Jun-19 13:33N 34°37' E 135°18'6 5.2
2016-Jun-19 12:19N 34°37' E 135°26'0 0.0
2016-Jun-19 11:31N 34°37' E 135°26'0 0.0
2016-Jun-19 10:31N 34°37' E 135°26'0 0.0
2016-Jun-19 09:31N 34°37' E 135°26'0 0.0
2016-Jun-19 08:31N 34°37' E 135°26'0 0.0
2016-Jun-19 07:31N 34°37' E 135°26'0 0.0
2016-Jun-19 06:31N 34°37' E 135°26'0 0.0
2016-Jun-19 05:31N 34°37' E 135°26'0 0.0
2016-Jun-19 04:19N 34°37' E 135°26'0 0.0
2016-Jun-19 03:31N 34°37' E 135°26'0 0.0
2016-Jun-19 02:31N 34°37' E 135°26'0 0.0
2016-Jun-19 01:31N 34°37' E 135°26'0 0.0
2016-Jun-19 00:31N 34°37' E 135°26'0 0.0
2016-Jun-18 23:31N 34°37' E 135°26'0 0.0
2016-Jun-18 22:31N 34°37' E 135°26'0 0.0
2016-Jun-18 21:19N 34°37' E 135°26'5 6.8
2016-Jun-18 20:33N 34°36' E 135°20'1717.4
2016-Jun-18 19:33N 34°37' E 134°59'2 0.1
2016-Jun-17 14:33N 34°37' E 134°57'1817.8
2016-Jun-17 13:33N 34°37' E 135°18'6 5.9
2016-Jun-17 12:30N 34°37' E 135°26'0 0.0
2016-Jun-17 11:30N 34°37' E 135°26'0 0.0
2016-Jun-17 10:30N 34°37' E 135°26'0 0.0
2016-Jun-17 07:24N 34°37' E 135°26'0 0.0
2016-Jun-17 06:30N 34°37' E 135°26'0 0.0
2016-Jun-17 05:30N 34°37' E 135°26'0 0.0
2016-Jun-17 04:24N 34°37' E 135°26'0 0.0
2016-Jun-17 03:30N 34°37' E 135°26'0 0.0
2016-Jun-17 02:30N 34°37' E 135°26'0 0.0
2016-Jun-17 01:30N 34°37' E 135°26'0 0.0
2016-Jun-17 00:30N 34°37' E 135°26'0 0.0
2016-Jun-16 23:30N 34°37' E 135°26'0 0.0
2016-Jun-16 22:30N 34°37' E 135°26'0 0.0
2016-Jun-16 21:30N 34°37' E 135°26'5 5.4
2016-Jun-16 20:33N 34°36' E 135°20'1717.5
2016-Jun-16 19:33N 34°37' E 134°59'10 0.3
2016-Jun-15 15:04N 34°34' E 134°48'  
Track history (hours):
 
Tides and Currents Weather Stations Pressure Air Temp Water Temp Dewpoint Dewpoint Depression Visibility Wind Speed Wind Dir Waves Ship Positions

Orenge 7

Last reported at 2016-Jun-25 14:33 UTC. Time now 2016-Jun-26 15:34 UTC.
Position N 34°37' E 134°56'.

Length 163 m; draft 4.9 m.

Type: Passenger vessel. MMSI: 431500186.

Date/timePositionNaut miles runAvg speedWind from/ knotsBaromVisibWave heightAir tempDewpointWater temp
2016-Jun-25 14:33N 34°37' E 134°56'1918.8
2016-Jun-25 13:33N 34°37' E 135°19'6 5.0
2016-Jun-25 12:26N 34°37' E 135°26'0 0.0
2016-Jun-25 11:26N 34°37' E 135°26'0 0.0
2016-Jun-25 10:32N 34°37' E 135°26'0 0.0
2016-Jun-25 09:32N 34°37' E 135°26'0 0.0
2016-Jun-25 08:32N 34°37' E 135°26'0 0.0
2016-Jun-25 07:32N 34°37' E 135°26'0 0.0
2016-Jun-25 06:32N 34°37' E 135°26'0 0.0
2016-Jun-25 04:32N 34°37' E 135°26'0 0.0
2016-Jun-25 03:26N 34°37' E 135°26'0 0.0
2016-Jun-25 02:32N 34°37' E 135°26'0 0.0
2016-Jun-25 01:26N 34°37' E 135°26'0 0.0
2016-Jun-25 00:32N 34°37' E 135°26'0 0.0
2016-Jun-24 23:32N 34°37' E 135°26'0 0.0
2016-Jun-24 22:32N 34°37' E 135°26'0 0.0
2016-Jun-24 21:32N 34°37' E 135°26'5 5.1
2016-Jun-24 20:33N 34°36' E 135°20'1818.0
2016-Jun-24 19:33N 34°37' E 134°58'2 0.1
2016-Jun-23 14:33N 34°37' E 134°56'1818.3
2016-Jun-23 13:33N 34°36' E 135°18'6 6.4
2016-Jun-23 12:33N 34°37' E 135°26'0 0.0
2016-Jun-23 11:33N 34°37' E 135°26'0 0.0
2016-Jun-23 10:33N 34°37' E 135°26'0 0.0
2016-Jun-23 09:33N 34°37' E 135°26'0 0.0
2016-Jun-23 08:33N 34°37' E 135°26'0 0.0
2016-Jun-23 07:33N 34°37' E 135°26'0 0.0
2016-Jun-23 05:33N 34°37' E 135°26'0 0.0
2016-Jun-23 04:27N 34°37' E 135°26'0 0.0
2016-Jun-23 03:33N 34°37' E 135°26'0 0.0
2016-Jun-23 02:33N 34°37' E 135°26'0 0.0
2016-Jun-23 01:33N 34°37' E 135°26'0 0.0
2016-Jun-23 00:33N 34°37' E 135°26'0 0.0
2016-Jun-22 23:33N 34°37' E 135°26'0 0.0
2016-Jun-22 22:27N 34°37' E 135°26'0 0.0
2016-Jun-22 21:33N 34°37' E 135°26'5 4.9
2016-Jun-22 20:33N 34°36' E 135°20'1717.1
2016-Jun-22 19:33N 34°37' E 134°59'3 0.1
2016-Jun-21 14:33N 34°37' E 134°56'1918.5
2016-Jun-21 13:33N 34°36' E 135°19'6 5.7
2016-Jun-21 12:29N 34°37' E 135°26'0 0.0
2016-Jun-21 11:23N 34°37' E 135°26'0 0.0
2016-Jun-21 10:29N 34°37' E 135°26'0 0.0
2016-Jun-21 09:05N 34°37' E 135°26'0 0.0
2016-Jun-21 08:29N 34°37' E 135°26'0 0.0
2016-Jun-21 07:29N 34°37' E 135°26'0 0.0
2016-Jun-21 04:23N 34°37' E 135°26'0 0.0
2016-Jun-21 03:23N 34°37' E 135°26'0 0.0
2016-Jun-21 02:17N 34°37' E 135°26'0 0.0
2016-Jun-21 01:29N 34°37' E 135°26'0 0.0
2016-Jun-21 00:23N 34°37' E 135°26'0 0.0
2016-Jun-20 23:29N 34°37' E 135°26'0 0.0
2016-Jun-20 22:29N 34°37' E 135°26'0 0.0
2016-Jun-20 21:29N 34°37' E 135°26'5 5.3
2016-Jun-20 20:33N 34°36' E 135°20'1717.2
2016-Jun-20 19:34N 34°37' E 134°59'3 0.1
2016-Jun-19 14:33N 34°37' E 134°56'1818.5
2016-Jun-19 13:33N 34°37' E 135°18'6 5.2
2016-Jun-19 12:19N 34°37' E 135°26'0 0.0
2016-Jun-19 11:31N 34°37' E 135°26'0 0.0
2016-Jun-19 10:31N 34°37' E 135°26'0 0.0
2016-Jun-19 09:31N 34°37' E 135°26'0 0.0
2016-Jun-19 08:31N 34°37' E 135°26'0 0.0
2016-Jun-19 07:31N 34°37' E 135°26'0 0.0
2016-Jun-19 06:31N 34°37' E 135°26'0 0.0
2016-Jun-19 05:31N 34°37' E 135°26'0 0.0
2016-Jun-19 04:19N 34°37' E 135°26'0 0.0
2016-Jun-19 03:31N 34°37' E 135°26'0 0.0
2016-Jun-19 02:31N 34°37' E 135°26'0 0.0
2016-Jun-19 01:31N 34°37' E 135°26'0 0.0
2016-Jun-19 00:31N 34°37' E 135°26'0 0.0
2016-Jun-18 23:31N 34°37' E 135°26'0 0.0
2016-Jun-18 22:31N 34°37' E 135°26'0 0.0
2016-Jun-18 21:19N 34°37' E 135°26'5 6.8
2016-Jun-18 20:33N 34°36' E 135°20'1717.4
2016-Jun-18 19:33N 34°37' E 134°59'2 0.1
2016-Jun-17 14:33N 34°37' E 134°57'1817.8
2016-Jun-17 13:33N 34°37' E 135°18'6 5.9
2016-Jun-17 12:30N 34°37' E 135°26'0 0.0
2016-Jun-17 11:30N 34°37' E 135°26'0 0.0
2016-Jun-17 10:30N 34°37' E 135°26'0 0.0
2016-Jun-17 07:24N 34°37' E 135°26'0 0.0
2016-Jun-17 06:30N 34°37' E 135°26'0 0.0
2016-Jun-17 05:30N 34°37' E 135°26'0 0.0
2016-Jun-17 04:24N 34°37' E 135°26'0 0.0
2016-Jun-17 03:30N 34°37' E 135°26'0 0.0
2016-Jun-17 02:30N 34°37' E 135°26'0 0.0
2016-Jun-17 01:30N 34°37' E 135°26'0 0.0
2016-Jun-17 00:30N 34°37' E 135°26'0 0.0
2016-Jun-16 23:30N 34°37' E 135°26'0 0.0
2016-Jun-16 22:30N 34°37' E 135°26'0 0.0
2016-Jun-16 21:30N 34°37' E 135°26'5 5.4
2016-Jun-16 20:33N 34°36' E 135°20'1717.5
2016-Jun-16 19:33N 34°37' E 134°59'10 0.3
2016-Jun-15 15:04N 34°34' E 134°48'  

Dump ship's entire track history